sensor_id;sensor_type;location;lat;lon;timestamp;temperature;humidity
68990;DHT22;56046;47.270;11.368;2022-10-10T00:00:46;10.00;95.07
68990;DHT22;56046;47.270;11.368;2022-10-10T00:03:12;10.03;94.91
68990;DHT22;56046;47.270;11.368;2022-10-10T00:05:38;9.92;95.05
68990;DHT22;56046;47.270;11.368;2022-10-10T00:08:04;9.72;96.07
68990;DHT22;56046;47.270;11.368;2022-10-10T00:10:30;9.82;95.44
68990;DHT22;56046;47.270;11.368;2022-10-10T00:12:56;9.69;95.36
68990;DHT22;56046;47.270;11.368;2022-10-10T00:15:21;9.54;96.11
68990;DHT22;56046;47.270;11.368;2022-10-10T00:17:47;9.45;96.32
68990;DHT22;56046;47.270;11.368;2022-10-10T00:20:15;9.47;96.11
68990;DHT22;56046;47.270;11.368;2022-10-10T00:22:41;9.31;96.82
68990;DHT22;56046;47.270;11.368;2022-10-10T00:25:08;9.38;96.81
68990;DHT22;56046;47.270;11.368;2022-10-10T00:27:34;9.37;96.33
68990;DHT22;56046;47.270;11.368;2022-10-10T00:29:59;9.41;96.29
68990;DHT22;56046;47.270;11.368;2022-10-10T00:32:25;9.45;96.11
68990;DHT22;56046;47.270;11.368;2022-10-10T00:34:51;9.44;96.07
68990;DHT22;56046;47.270;11.368;2022-10-10T00:37:16;9.47;96.43
68990;DHT22;56046;47.270;11.368;2022-10-10T00:39:42;9.45;96.37
68990;DHT22;56046;47.270;11.368;2022-10-10T00:42:12;9.50;96.32
68990;DHT22;56046;47.270;11.368;2022-10-10T00:44:39;9.55;96.40
68990;DHT22;56046;47.270;11.368;2022-10-10T00:47:05;9.79;96.22
68990;DHT22;56046;47.270;11.368;2022-10-10T00:49:31;9.82;95.69
68990;DHT22;56046;47.270;11.368;2022-10-10T00:51:57;9.90;95.55
68990;DHT22;56046;47.270;11.368;2022-10-10T00:54:25;9.93;95.14
68990;DHT22;56046;47.270;11.368;2022-10-10T00:56:54;9.88;95.03
68990;DHT22;56046;47.270;11.368;2022-10-10T00:59:21;9.81;95.14
68990;DHT22;56046;47.270;11.368;2022-10-10T01:01:47;9.77;95.20
68990;DHT22;56046;47.270;11.368;2022-10-10T01:04:29;9.57;95.61
68990;DHT22;56046;47.270;11.368;2022-10-10T01:06:55;9.48;95.78
68990;DHT22;56046;47.270;11.368;2022-10-10T01:09:21;9.48;95.53
68990;DHT22;56046;47.270;11.368;2022-10-10T01:15:11;9.42;95.63
68990;DHT22;56046;47.270;11.368;2022-10-10T01:17:55;9.27;96.47
68990;DHT22;56046;47.270;11.368;2022-10-10T01:28:50;9.31;95.97
68990;DHT22;56046;47.270;11.368;2022-10-10T01:31:18;9.32;96.14
68990;DHT22;56046;47.270;11.368;2022-10-10T01:40:10;9.28;96.56
68990;DHT22;56046;47.270;11.368;2022-10-10T01:43:05;9.34;96.44
68990;DHT22;56046;47.270;11.368;2022-10-10T01:45:31;9.40;96.26
68990;DHT22;56046;47.270;11.368;2022-10-10T01:48:00;9.31;96.27
68990;DHT22;56046;47.270;11.368;2022-10-10T01:50:26;9.40;96.24
68990;DHT22;56046;47.270;11.368;2022-10-10T01:53:13;9.45;95.98
68990;DHT22;56046;47.270;11.368;2022-10-10T01:55:51;9.41;96.01
68990;DHT22;56046;47.270;11.368;2022-10-10T02:03:32;9.42;96.26
68990;DHT22;56046;47.270;11.368;2022-10-10T02:06:13;9.55;95.86
68990;DHT22;56046;47.270;11.368;2022-10-10T02:08:44;9.62;95.80
68990;DHT22;56046;47.270;11.368;2022-10-10T02:11:12;9.74;95.44
68990;DHT22;56046;47.270;11.368;2022-10-10T02:13:42;9.90;95.02
68990;DHT22;56046;47.270;11.368;2022-10-10T02:16:15;9.97;94.46
68990;DHT22;56046;47.270;11.368;2022-10-10T02:18:44;10.13;94.00
68990;DHT22;56046;47.270;11.368;2022-10-10T02:21:11;10.24;93.82
68990;DHT22;56046;47.270;11.368;2022-10-10T02:23:39;10.38;92.99
68990;DHT22;56046;47.270;11.368;2022-10-10T02:26:09;10.61;93.07
68990;DHT22;56046;47.270;11.368;2022-10-10T02:28:39;10.57;92.58
68990;DHT22;56046;47.270;11.368;2022-10-10T02:31:14;10.55;92.79
68990;DHT22;56046;47.270;11.368;2022-10-10T02:33:52;10.54;92.20
68990;DHT22;56046;47.270;11.368;2022-10-10T02:36:21;10.48;92.55
68990;DHT22;56046;47.270;11.368;2022-10-10T02:38:49;10.53;92.45
68990;DHT22;56046;47.270;11.368;2022-10-10T02:41:17;10.33;93.23
68990;DHT22;56046;47.270;11.368;2022-10-10T02:43:43;10.29;93.31
68990;DHT22;56046;47.270;11.368;2022-10-10T02:46:12;10.32;93.33
68990;DHT22;56046;47.270;11.368;2022-10-10T02:48:38;10.34;93.10
68990;DHT22;56046;47.270;11.368;2022-10-10T02:51:04;10.43;92.49
68990;DHT22;56046;47.270;11.368;2022-10-10T02:53:30;10.48;92.26
68990;DHT22;56046;47.270;11.368;2022-10-10T02:55:55;10.62;91.95
68990;DHT22;56046;47.270;11.368;2022-10-10T02:58:20;10.61;91.66
68990;DHT22;56046;47.270;11.368;2022-10-10T03:00:46;10.65;91.59
68990;DHT22;56046;47.270;11.368;2022-10-10T03:03:11;10.78;90.93
68990;DHT22;56046;47.270;11.368;2022-10-10T03:05:37;10.88;90.97
68990;DHT22;56046;47.270;11.368;2022-10-10T03:08:02;10.86;90.85
68990;DHT22;56046;47.270;11.368;2022-10-10T03:10:28;10.86;90.74
68990;DHT22;56046;47.270;11.368;2022-10-10T03:12:53;10.73;90.60
68990;DHT22;56046;47.270;11.368;2022-10-10T03:15:18;10.72;90.30
68990;DHT22;56046;47.270;11.368;2022-10-10T03:17:44;10.61;91.09
68990;DHT22;56046;47.270;11.368;2022-10-10T03:20:09;10.64;90.94
68990;DHT22;56046;47.270;11.368;2022-10-10T03:22:35;10.68;90.85
68990;DHT22;56046;47.270;11.368;2022-10-10T03:25:01;10.75;90.69
68990;DHT22;56046;47.270;11.368;2022-10-10T03:27:27;10.67;91.25
68990;DHT22;56046;47.270;11.368;2022-10-10T03:29:52;10.51;91.24
68990;DHT22;56046;47.270;11.368;2022-10-10T03:32:18;10.58;90.77
68990;DHT22;56046;47.270;11.368;2022-10-10T03:34:43;10.61;90.86
68990;DHT22;56046;47.270;11.368;2022-10-10T03:37:08;10.57;91.06
68990;DHT22;56046;47.270;11.368;2022-10-10T03:39:34;10.58;91.03
68990;DHT22;56046;47.270;11.368;2022-10-10T03:41:59;10.58;90.98
68990;DHT22;56046;47.270;11.368;2022-10-10T03:44:25;10.54;91.18
68990;DHT22;56046;47.270;11.368;2022-10-10T03:46:50;10.34;91.52
68990;DHT22;56046;47.270;11.368;2022-10-10T03:49:16;10.40;91.60
68990;DHT22;56046;47.270;11.368;2022-10-10T03:51:41;10.43;91.55
68990;DHT22;56046;47.270;11.368;2022-10-10T03:54:07;10.44;91.46
68990;DHT22;56046;47.270;11.368;2022-10-10T03:56:32;10.40;91.63
68990;DHT22;56046;47.270;11.368;2022-10-10T03:58:58;10.51;91.28
68990;DHT22;56046;47.270;11.368;2022-10-10T04:01:26;10.55;91.38
68990;DHT22;56046;47.270;11.368;2022-10-10T04:03:51;10.67;90.91
68990;DHT22;56046;47.270;11.368;2022-10-10T04:06:17;10.69;90.57
68990;DHT22;56046;47.270;11.368;2022-10-10T04:08:42;10.68;90.34
68990;DHT22;56046;47.270;11.368;2022-10-10T04:11:08;10.68;90.58
68990;DHT22;56046;47.270;11.368;2022-10-10T04:13:33;10.73;90.48
68990;DHT22;56046;47.270;11.368;2022-10-10T04:15:59;10.69;90.45
68990;DHT22;56046;47.270;11.368;2022-10-10T04:18:25;10.71;90.46
68990;DHT22;56046;47.270;11.368;2022-10-10T04:20:51;10.78;90.41
68990;DHT22;56046;47.270;11.368;2022-10-10T04:23:16;10.76;89.95
68990;DHT22;56046;47.270;11.368;2022-10-10T04:25:42;10.72;90.23
68990;DHT22;56046;47.270;11.368;2022-10-10T04:28:12;10.65;90.31
68990;DHT22;56046;47.270;11.368;2022-10-10T04:30:37;10.54;90.86
68990;DHT22;56046;47.270;11.368;2022-10-10T04:33:03;10.40;91.17
68990;DHT22;56046;47.270;11.368;2022-10-10T04:35:28;10.40;91.18
68990;DHT22;56046;47.270;11.368;2022-10-10T04:37:54;10.38;91.41
68990;DHT22;56046;47.270;11.368;2022-10-10T04:40:19;10.07;92.28
68990;DHT22;56046;47.270;11.368;2022-10-10T04:42:45;10.03;92.60
68990;DHT22;56046;47.270;11.368;2022-10-10T04:45:10;10.10;92.29
68990;DHT22;56046;47.270;11.368;2022-10-10T04:47:35;10.13;92.08
68990;DHT22;56046;47.270;11.368;2022-10-10T04:50:01;10.05;92.53
68990;DHT22;56046;47.270;11.368;2022-10-10T04:52:26;9.96;93.10
68990;DHT22;56046;47.270;11.368;2022-10-10T04:54:52;10.02;92.61
68990;DHT22;56046;47.270;11.368;2022-10-10T04:57:17;9.99;92.93
68990;DHT22;56046;47.270;11.368;2022-10-10T04:59:43;9.92;93.29
68990;DHT22;56046;47.270;11.368;2022-10-10T05:02:08;9.86;93.13
68990;DHT22;56046;47.270;11.368;2022-10-10T05:04:34;9.86;93.29
68990;DHT22;56046;47.270;11.368;2022-10-10T05:07:00;9.92;93.09
68990;DHT22;56046;47.270;11.368;2022-10-10T05:09:25;9.83;93.47
68990;DHT22;56046;47.270;11.368;2022-10-10T05:11:51;9.86;93.28
68990;DHT22;56046;47.270;11.368;2022-10-10T05:14:16;9.89;93.21
68990;DHT22;56046;47.270;11.368;2022-10-10T05:16:41;10.09;92.75
68990;DHT22;56046;47.270;11.368;2022-10-10T05:19:07;10.34;91.85
68990;DHT22;56046;47.270;11.368;2022-10-10T05:21:33;10.41;91.46
68990;DHT22;56046;47.270;11.368;2022-10-10T05:23:58;10.45;91.27
68990;DHT22;56046;47.270;11.368;2022-10-10T05:26:24;10.51;91.22
68990;DHT22;56046;47.270;11.368;2022-10-10T05:28:49;10.55;91.15
68990;DHT22;56046;47.270;11.368;2022-10-10T05:31:14;10.62;90.79
68990;DHT22;56046;47.270;11.368;2022-10-10T05:33:40;10.67;90.49
68990;DHT22;56046;47.270;11.368;2022-10-10T05:36:11;10.64;90.56
68990;DHT22;56046;47.270;11.368;2022-10-10T05:38:37;10.64;90.83
68990;DHT22;56046;47.270;11.368;2022-10-10T05:41:03;10.60;90.99
68990;DHT22;56046;47.270;11.368;2022-10-10T05:43:29;10.53;90.95
68990;DHT22;56046;47.270;11.368;2022-10-10T05:45:55;10.50;91.23
68990;DHT22;56046;47.270;11.368;2022-10-10T05:48:20;10.62;90.87
68990;DHT22;56046;47.270;11.368;2022-10-10T05:50:51;10.61;90.64
68990;DHT22;56046;47.270;11.368;2022-10-10T05:53:16;10.55;90.96
68990;DHT22;56046;47.270;11.368;2022-10-10T05:55:42;10.55;91.10
68990;DHT22;56046;47.270;11.368;2022-10-10T05:58:09;10.53;91.34
68990;DHT22;56046;47.270;11.368;2022-10-10T06:00:38;10.51;91.33
68990;DHT22;56046;47.270;11.368;2022-10-10T06:03:03;10.65;90.89
68990;DHT22;56046;47.270;11.368;2022-10-10T06:05:29;10.71;90.49
68990;DHT22;56046;47.270;11.368;2022-10-10T06:07:54;10.65;90.76
68990;DHT22;56046;47.270;11.368;2022-10-10T06:10:20;10.65;91.07
68990;DHT22;56046;47.270;11.368;2022-10-10T06:12:45;10.78;90.72
68990;DHT22;56046;47.270;11.368;2022-10-10T06:15:11;10.91;90.44
68990;DHT22;56046;47.270;11.368;2022-10-10T06:17:36;10.93;90.21
68990;DHT22;56046;47.270;11.368;2022-10-10T06:20:02;10.93;89.98
68990;DHT22;56046;47.270;11.368;2022-10-10T06:22:28;10.85;90.37
68990;DHT22;56046;47.270;11.368;2022-10-10T06:24:53;10.99;90.08
68990;DHT22;56046;47.270;11.368;2022-10-10T06:27:19;11.05;89.74
68990;DHT22;56046;47.270;11.368;2022-10-10T06:29:44;11.16;89.53
68990;DHT22;56046;47.270;11.368;2022-10-10T06:32:10;11.20;89.59
68990;DHT22;56046;47.270;11.368;2022-10-10T06:34:35;11.12;89.34
68990;DHT22;56046;47.270;11.368;2022-10-10T06:37:01;11.00;89.68
68990;DHT22;56046;47.270;11.368;2022-10-10T06:39:26;11.15;89.30
68990;DHT22;56046;47.270;11.368;2022-10-10T06:41:51;11.27;89.10
68990;DHT22;56046;47.270;11.368;2022-10-10T06:44:17;11.44;88.80
68990;DHT22;56046;47.270;11.368;2022-10-10T06:46:43;11.61;88.63
68990;DHT22;56046;47.270;11.368;2022-10-10T06:49:08;11.70;88.17
68990;DHT22;56046;47.270;11.368;2022-10-10T06:51:34;11.85;88.05
68990;DHT22;56046;47.270;11.368;2022-10-10T06:53:59;11.99;87.26
68990;DHT22;56046;47.270;11.368;2022-10-10T06:56:25;11.91;87.05
68990;DHT22;56046;47.270;11.368;2022-10-10T06:58:50;11.78;87.05
68990;DHT22;56046;47.270;11.368;2022-10-10T07:01:18;11.99;86.99
68990;DHT22;56046;47.270;11.368;2022-10-10T07:03:44;12.20;86.61
68990;DHT22;56046;47.270;11.368;2022-10-10T07:06:14;12.41;86.71
68990;DHT22;56046;47.270;11.368;2022-10-10T07:08:40;12.33;85.80
68990;DHT22;56046;47.270;11.368;2022-10-10T07:11:07;12.61;85.42
68990;DHT22;56046;47.270;11.368;2022-10-10T07:13:34;12.85;85.64
68990;DHT22;56046;47.270;11.368;2022-10-10T07:15:59;13.05;84.86
68990;DHT22;56046;47.270;11.368;2022-10-10T07:18:25;13.08;82.00
68990;DHT22;56046;47.270;11.368;2022-10-10T07:20:54;13.18;82.75
68990;DHT22;56046;47.270;11.368;2022-10-10T07:23:20;13.36;83.41
68990;DHT22;56046;47.270;11.368;2022-10-10T07:25:45;13.46;82.27
68990;DHT22;56046;47.270;11.368;2022-10-10T07:28:11;13.51;82.40
68990;DHT22;56046;47.270;11.368;2022-10-10T07:30:43;13.69;81.81
68990;DHT22;56046;47.270;11.368;2022-10-10T07:33:10;13.75;80.92
68990;DHT22;56046;47.270;11.368;2022-10-10T07:35:36;13.81;80.35
68990;DHT22;56046;47.270;11.368;2022-10-10T07:38:02;13.91;80.30
68990;DHT22;56046;47.270;11.368;2022-10-10T07:40:28;13.88;79.64
68990;DHT22;56046;47.270;11.368;2022-10-10T07:42:53;14.01;80.20
68990;DHT22;56046;47.270;11.368;2022-10-10T07:45:18;14.15;80.06
68990;DHT22;56046;47.270;11.368;2022-10-10T07:47:44;14.05;79.45
68990;DHT22;56046;47.270;11.368;2022-10-10T07:50:11;14.18;80.10
68990;DHT22;56046;47.270;11.368;2022-10-10T07:52:37;14.18;79.64
68990;DHT22;56046;47.270;11.368;2022-10-10T07:55:03;14.19;80.18
68990;DHT22;56046;47.270;11.368;2022-10-10T07:57:29;14.26;79.25
68990;DHT22;56046;47.270;11.368;2022-10-10T08:00:06;14.40;79.43
68990;DHT22;56046;47.270;11.368;2022-10-10T08:02:31;14.59;79.12
68990;DHT22;56046;47.270;11.368;2022-10-10T08:04:57;14.74;78.85
68990;DHT22;56046;47.270;11.368;2022-10-10T08:07:22;14.79;77.89
68990;DHT22;56046;47.270;11.368;2022-10-10T08:09:48;14.94;77.27
68990;DHT22;56046;47.270;11.368;2022-10-10T08:12:14;14.95;77.43
68990;DHT22;56046;47.270;11.368;2022-10-10T08:14:39;15.09;76.81
68990;DHT22;56046;47.270;11.368;2022-10-10T08:17:05;15.29;76.48
68990;DHT22;56046;47.270;11.368;2022-10-10T08:19:30;15.43;75.55
68990;DHT22;56046;47.270;11.368;2022-10-10T08:21:56;15.60;76.10
68990;DHT22;56046;47.270;11.368;2022-10-10T08:24:21;15.59;75.50
68990;DHT22;56046;47.270;11.368;2022-10-10T08:26:47;15.79;74.45
68990;DHT22;56046;47.270;11.368;2022-10-10T08:29:12;15.91;74.31
68990;DHT22;56046;47.270;11.368;2022-10-10T08:31:38;16.01;74.75
68990;DHT22;56046;47.270;11.368;2022-10-10T08:34:03;15.80;73.64
68990;DHT22;56046;47.270;11.368;2022-10-10T08:36:29;16.10;74.04
68990;DHT22;56046;47.270;11.368;2022-10-10T08:38:55;16.15;72.40
68990;DHT22;56046;47.270;11.368;2022-10-10T08:41:47;16.32;72.73
68990;DHT22;56046;47.270;11.368;2022-10-10T08:44:39;16.48;72.64
68990;DHT22;56046;47.270;11.368;2022-10-10T08:49:50;16.87;71.51
68990;DHT22;56046;47.270;11.368;2022-10-10T08:52:48;16.87;72.79
68990;DHT22;56046;47.270;11.368;2022-10-10T08:55:27;16.97;71.58
68990;DHT22;56046;47.270;11.368;2022-10-10T09:00:50;17.34;71.01
68990;DHT22;56046;47.270;11.368;2022-10-10T09:03:26;16.68;71.44
68990;DHT22;56046;47.270;11.368;2022-10-10T09:10:56;17.75;70.88
68990;DHT22;56046;47.270;11.368;2022-10-10T09:13:32;17.87;68.43
68990;DHT22;56046;47.270;11.368;2022-10-10T09:16:24;18.20;67.59
68990;DHT22;56046;47.270;11.368;2022-10-10T09:21:40;18.55;66.01
68990;DHT22;56046;47.270;11.368;2022-10-10T09:24:25;18.72;66.65
68990;DHT22;56046;47.270;11.368;2022-10-10T09:26:57;19.02;65.71
68990;DHT22;56046;47.270;11.368;2022-10-10T09:30:02;19.07;64.46
68990;DHT22;56046;47.270;11.368;2022-10-10T09:32:40;19.10;64.65
68990;DHT22;56046;47.270;11.368;2022-10-10T09:35:16;19.27;65.93
68990;DHT22;56046;47.270;11.368;2022-10-10T09:37:43;18.83;64.64
68990;DHT22;56046;47.270;11.368;2022-10-10T09:40:32;18.37;66.43
68990;DHT22;56046;47.270;11.368;2022-10-10T09:43:28;18.96;66.02
68990;DHT22;56046;47.270;11.368;2022-10-10T09:45:54;19.07;64.95
68990;DHT22;56046;47.270;11.368;2022-10-10T09:48:37;18.81;65.48
68990;DHT22;56046;47.270;11.368;2022-10-10T09:51:10;18.99;65.52
68990;DHT22;56046;47.270;11.368;2022-10-10T09:53:36;18.88;64.43
68990;DHT22;56046;47.270;11.368;2022-10-10T09:56:03;18.77;64.83
68990;DHT22;56046;47.270;11.368;2022-10-10T09:58:39;18.88;65.42
68990;DHT22;56046;47.270;11.368;2022-10-10T10:01:34;18.96;64.49
68990;DHT22;56046;47.270;11.368;2022-10-10T10:06:34;18.92;62.54
68990;DHT22;56046;47.270;11.368;2022-10-10T10:09:05;18.79;62.60
68990;DHT22;56046;47.270;11.368;2022-10-10T10:11:34;18.49;63.40
68990;DHT22;56046;47.270;11.368;2022-10-10T10:14:00;18.56;65.20
68990;DHT22;56046;47.270;11.368;2022-10-10T10:16:35;18.52;64.61
68990;DHT22;56046;47.270;11.368;2022-10-10T10:19:02;18.44;63.76
68990;DHT22;56046;47.270;11.368;2022-10-10T10:21:29;18.51;64.60
68990;DHT22;56046;47.270;11.368;2022-10-10T10:23:58;18.58;64.34
68990;DHT22;56046;47.270;11.368;2022-10-10T10:28:54;18.47;63.58
68990;DHT22;56046;47.270;11.368;2022-10-10T10:31:28;18.51;63.09
68990;DHT22;56046;47.270;11.368;2022-10-10T10:39:27;18.76;62.81
68990;DHT22;56046;47.270;11.368;2022-10-10T10:45:09;18.82;61.95
68990;DHT22;56046;47.270;11.368;2022-10-10T10:56:04;18.95;61.74
68990;DHT22;56046;47.270;11.368;2022-10-10T11:01:40;19.16;62.04
68990;DHT22;56046;47.270;11.368;2022-10-10T11:09:31;19.37;59.88
68990;DHT22;56046;47.270;11.368;2022-10-10T11:12:08;19.40;59.82
68990;DHT22;56046;47.270;11.368;2022-10-10T11:14:39;19.44;58.65
68990;DHT22;56046;47.270;11.368;2022-10-10T11:19:51;19.51;58.85
68990;DHT22;56046;47.270;11.368;2022-10-10T11:22:25;19.48;56.57
68990;DHT22;56046;47.270;11.368;2022-10-10T11:25:06;19.46;57.92
68990;DHT22;56046;47.270;11.368;2022-10-10T11:28:03;19.55;58.78
68990;DHT22;56046;47.270;11.368;2022-10-10T11:30:33;19.64;57.56
68990;DHT22;56046;47.270;11.368;2022-10-10T11:33:15;19.62;56.77
68990;DHT22;56046;47.270;11.368;2022-10-10T11:35:52;19.76;56.82
68990;DHT22;56046;47.270;11.368;2022-10-10T11:43:38;19.76;54.95
68990;DHT22;56046;47.270;11.368;2022-10-10T11:46:12;19.71;54.69
68990;DHT22;56046;47.270;11.368;2022-10-10T11:51:26;19.92;53.36
68990;DHT22;56046;47.270;11.368;2022-10-10T11:53:58;19.92;53.30
68990;DHT22;56046;47.270;11.368;2022-10-10T11:56:31;19.95;52.71
68990;DHT22;56046;47.270;11.368;2022-10-10T12:01:47;20.06;53.67
68990;DHT22;56046;47.270;11.368;2022-10-10T12:04:12;20.08;53.59
68990;DHT22;56046;47.270;11.368;2022-10-10T12:06:45;20.09;53.03
68990;DHT22;56046;47.270;11.368;2022-10-10T12:12:21;20.19;53.18
68990;DHT22;56046;47.270;11.368;2022-10-10T12:14:50;20.29;54.27
68990;DHT22;56046;47.270;11.368;2022-10-10T12:17:28;20.29;54.09
68990;DHT22;56046;47.270;11.368;2022-10-10T12:19:54;20.27;52.12
68990;DHT22;56046;47.270;11.368;2022-10-10T12:22:26;20.31;51.50
68990;DHT22;56046;47.270;11.368;2022-10-10T12:27:45;20.29;51.90
68990;DHT22;56046;47.270;11.368;2022-10-10T12:32:47;20.40;52.99
68990;DHT22;56046;47.270;11.368;2022-10-10T12:35:28;20.47;53.07
68990;DHT22;56046;47.270;11.368;2022-10-10T12:40:31;20.52;52.64
68990;DHT22;56046;47.270;11.368;2022-10-10T12:43:01;20.58;51.58
68990;DHT22;56046;47.270;11.368;2022-10-10T12:47:59;20.69;50.64
68990;DHT22;56046;47.270;11.368;2022-10-10T12:52:58;20.64;51.59
68990;DHT22;56046;47.270;11.368;2022-10-10T12:55:48;20.65;50.45
68990;DHT22;56046;47.270;11.368;2022-10-10T12:58:25;20.63;50.57
68990;DHT22;56046;47.270;11.368;2022-10-10T13:00:52;20.58;50.41
68990;DHT22;56046;47.270;11.368;2022-10-10T13:08:42;20.69;51.02
68990;DHT22;56046;47.270;11.368;2022-10-10T13:11:11;20.72;50.53
68990;DHT22;56046;47.270;11.368;2022-10-10T13:13:38;20.82;51.32
68990;DHT22;56046;47.270;11.368;2022-10-10T13:16:16;20.89;51.41
68990;DHT22;56046;47.270;11.368;2022-10-10T13:18:49;21.02;51.11
68990;DHT22;56046;47.270;11.368;2022-10-10T13:21:30;21.22;51.66
68990;DHT22;56046;47.270;11.368;2022-10-10T13:24:01;21.34;50.79
68990;DHT22;56046;47.270;11.368;2022-10-10T13:26:36;21.46;50.74
68990;DHT22;56046;47.270;11.368;2022-10-10T13:29:31;21.53;50.54
68990;DHT22;56046;47.270;11.368;2022-10-10T13:32:13;21.64;50.65
68990;DHT22;56046;47.270;11.368;2022-10-10T13:34:51;21.80;51.12
68990;DHT22;56046;47.270;11.368;2022-10-10T13:37:18;21.98;51.83
68990;DHT22;56046;47.270;11.368;2022-10-10T13:39:44;22.15;51.50
68990;DHT22;56046;47.270;11.368;2022-10-10T13:42:30;22.25;51.15
68990;DHT22;56046;47.270;11.368;2022-10-10T13:44:57;22.43;50.06
68990;DHT22;56046;47.270;11.368;2022-10-10T13:47:48;22.47;48.61
68990;DHT22;56046;47.270;11.368;2022-10-10T14:03:49;21.64;48.62
68990;DHT22;56046;47.270;11.368;2022-10-10T14:06:18;21.51;48.99
68990;DHT22;56046;47.270;11.368;2022-10-10T14:08:44;21.39;51.60
68990;DHT22;56046;47.270;11.368;2022-10-10T14:11:15;21.18;53.82
68990;DHT22;56046;47.270;11.368;2022-10-10T14:13:46;20.71;55.36
68990;DHT22;56046;47.270;11.368;2022-10-10T14:18:44;20.41;57.83
68990;DHT22;56046;47.270;11.368;2022-10-10T14:21:10;20.19;59.63
68990;DHT22;56046;47.270;11.368;2022-10-10T14:23:36;19.82;62.54
68990;DHT22;56046;47.270;11.368;2022-10-10T14:26:03;19.46;64.48
68990;DHT22;56046;47.270;11.368;2022-10-10T14:28:31;19.32;64.65
68990;DHT22;56046;47.270;11.368;2022-10-10T14:30:57;19.00;67.05
68990;DHT22;56046;47.270;11.368;2022-10-10T14:33:25;18.86;67.56
68990;DHT22;56046;47.270;11.368;2022-10-10T14:35:51;18.81;68.55
68990;DHT22;56046;47.270;11.368;2022-10-10T14:38:18;18.77;68.99
68990;DHT22;56046;47.270;11.368;2022-10-10T14:40:46;18.82;68.67
68990;DHT22;56046;47.270;11.368;2022-10-10T14:43:12;18.71;68.18
68990;DHT22;56046;47.270;11.368;2022-10-10T14:45:38;18.35;67.42
68990;DHT22;56046;47.270;11.368;2022-10-10T14:48:04;18.24;69.97
68990;DHT22;56046;47.270;11.368;2022-10-10T14:50:33;18.16;68.94
68990;DHT22;56046;47.270;11.368;2022-10-10T14:52:59;18.17;70.03
68990;DHT22;56046;47.270;11.368;2022-10-10T14:55:25;18.20;68.39
68990;DHT22;56046;47.270;11.368;2022-10-10T14:57:50;18.04;68.85
68990;DHT22;56046;47.270;11.368;2022-10-10T15:00:19;17.97;70.85
68990;DHT22;56046;47.270;11.368;2022-10-10T15:02:45;17.90;70.03
68990;DHT22;56046;47.270;11.368;2022-10-10T15:05:11;17.83;69.89
68990;DHT22;56046;47.270;11.368;2022-10-10T15:07:36;17.79;68.49
68990;DHT22;56046;47.270;11.368;2022-10-10T15:10:03;17.82;69.63
68990;DHT22;56046;47.270;11.368;2022-10-10T15:12:28;17.73;68.36
68990;DHT22;56046;47.270;11.368;2022-10-10T15:14:54;17.75;68.60
68990;DHT22;56046;47.270;11.368;2022-10-10T15:17:19;17.75;68.23
68990;DHT22;56046;47.270;11.368;2022-10-10T15:19:45;17.70;68.20
68990;DHT22;56046;47.270;11.368;2022-10-10T15:22:10;17.58;69.14
68990;DHT22;56046;47.270;11.368;2022-10-10T15:24:36;17.55;69.14
68990;DHT22;56046;47.270;11.368;2022-10-10T15:27:02;17.49;69.37
68990;DHT22;56046;47.270;11.368;2022-10-10T15:29:28;17.42;69.85
68990;DHT22;56046;47.270;11.368;2022-10-10T15:31:53;17.41;69.17
68990;DHT22;56046;47.270;11.368;2022-10-10T15:34:20;17.44;69.56
68990;DHT22;56046;47.270;11.368;2022-10-10T15:36:47;17.34;69.47
68990;DHT22;56046;47.270;11.368;2022-10-10T15:39:13;17.23;70.12
68990;DHT22;56046;47.270;11.368;2022-10-10T15:41:38;17.04;70.59
68990;DHT22;56046;47.270;11.368;2022-10-10T15:44:04;17.03;70.40
68990;DHT22;56046;47.270;11.368;2022-10-10T15:46:30;16.97;70.66
68990;DHT22;56046;47.270;11.368;2022-10-10T15:48:59;16.77;72.27
68990;DHT22;56046;47.270;11.368;2022-10-10T15:51:25;16.77;71.45
68990;DHT22;56046;47.270;11.368;2022-10-10T15:53:55;16.80;70.40
68990;DHT22;56046;47.270;11.368;2022-10-10T15:56:20;16.70;71.59
68990;DHT22;56046;47.270;11.368;2022-10-10T15:58:46;16.59;72.14
68990;DHT22;56046;47.270;11.368;2022-10-10T16:01:14;16.48;73.29
68990;DHT22;56046;47.270;11.368;2022-10-10T16:03:39;16.32;73.89
68990;DHT22;56046;47.270;11.368;2022-10-10T16:06:05;16.24;73.69
68990;DHT22;56046;47.270;11.368;2022-10-10T16:08:31;16.18;74.03
68990;DHT22;56046;47.270;11.368;2022-10-10T16:10:56;16.21;73.49
68990;DHT22;56046;47.270;11.368;2022-10-10T16:13:22;16.20;73.76
68990;DHT22;56046;47.270;11.368;2022-10-10T16:15:57;16.08;73.71
68990;DHT22;56046;47.270;11.368;2022-10-10T16:18:23;16.10;74.06
68990;DHT22;56046;47.270;11.368;2022-10-10T16:20:49;16.05;74.81
68990;DHT22;56046;47.270;11.368;2022-10-10T16:23:14;16.10;74.64
68990;DHT22;56046;47.270;11.368;2022-10-10T16:25:40;16.11;74.12
68990;DHT22;56046;47.270;11.368;2022-10-10T16:28:05;16.03;74.78
68990;DHT22;56046;47.270;11.368;2022-10-10T16:30:30;15.97;75.12
68990;DHT22;56046;47.270;11.368;2022-10-10T16:32:56;16.08;74.55
68990;DHT22;56046;47.270;11.368;2022-10-10T16:35:23;15.94;75.87
68990;DHT22;56046;47.270;11.368;2022-10-10T16:37:49;15.83;76.65
68990;DHT22;56046;47.270;11.368;2022-10-10T16:40:14;15.82;76.49
68990;DHT22;56046;47.270;11.368;2022-10-10T16:42:40;15.79;76.46
68990;DHT22;56046;47.270;11.368;2022-10-10T16:45:06;15.74;76.98
68990;DHT22;56046;47.270;11.368;2022-10-10T16:47:31;15.63;78.24
68990;DHT22;56046;47.270;11.368;2022-10-10T16:49:57;15.60;78.76
68990;DHT22;56046;47.270;11.368;2022-10-10T16:52:22;15.53;79.13
68990;DHT22;56046;47.270;11.368;2022-10-10T16:54:47;15.52;79.53
68990;DHT22;56046;47.270;11.368;2022-10-10T16:57:13;15.45;79.61
68990;DHT22;56046;47.270;11.368;2022-10-10T16:59:38;15.36;80.17
68990;DHT22;56046;47.270;11.368;2022-10-10T17:02:05;15.34;80.65
68990;DHT22;56046;47.270;11.368;2022-10-10T17:04:30;15.35;80.56
68990;DHT22;56046;47.270;11.368;2022-10-10T17:06:55;15.35;81.32
68990;DHT22;56046;47.270;11.368;2022-10-10T17:09:21;15.36;81.38
68990;DHT22;56046;47.270;11.368;2022-10-10T17:11:48;15.36;81.83
68990;DHT22;56046;47.270;11.368;2022-10-10T17:14:14;15.38;81.23
68990;DHT22;56046;47.270;11.368;2022-10-10T17:16:40;15.45;80.73
68990;DHT22;56046;47.270;11.368;2022-10-10T17:19:06;15.46;80.88
68990;DHT22;56046;47.270;11.368;2022-10-10T17:21:32;15.43;81.12
68990;DHT22;56046;47.270;11.368;2022-10-10T17:23:57;15.43;81.39